Time;durP1;ratioP1;P1;durP2;ratioP2;P2;SDS_P1;SDS_P2;PMS_P1;PMS_P2;Temp;Humidity;BMP_temperature;BMP_pressure;BME280_temperature;BME280_humidity;BME280_pressure;Samples;Min_cycle;Max_cycle;Signal;HPM_P1;HPM_P2
2023/05/01 00:00:53;;;;;;;5.37;3.83;;;15.30;69.20;;;;;;2453232;55;20945;-71
2023/05/01 00:03:19;;;;;;;6.10;4.60;;;15.30;69.30;;;;;;2231346;56;20961;-71
2023/05/01 00:05:46;;;;;;;7.37;4.90;;;15.30;69.30;;;;;;2453718;55;21542;-71
2023/05/01 00:08:12;;;;;;;7.57;4.90;;;15.30;69.40;;;;;;2230576;56;21761;-72
2023/05/01 00:10:38;;;;;;;5.93;4.15;;;15.30;69.40;;;;;;2237761;56;21025;-72
2023/05/01 00:13:05;;;;;;;6.93;4.40;;;15.30;69.50;;;;;;2231708;56;21080;-70
2023/05/01 00:15:31;;;;;;;5.15;3.78;;;15.30;69.50;;;;;;2453337;55;21117;-71
2023/05/01 00:18:00;;;;;;;5.15;3.45;;;15.30;69.60;;;;;;2231205;56;21096;-71
2023/05/01 00:20:28;;;;;;;4.47;3.08;;;15.30;69.60;;;;;;2453553;55;20941;-71
2023/05/01 00:22:55;;;;;;;4.97;3.45;;;15.30;69.60;;;;;;2235933;56;20944;-71
2023/05/01 00:25:23;;;;;;;5.43;3.83;;;15.40;69.80;;;;;;2453974;55;20965;-73
2023/05/01 00:27:50;;;;;;;6.28;4.25;;;15.30;69.60;;;;;;2452987;55;21025;-72
2023/05/01 00:30:16;;;;;;;5.12;3.60;;;15.30;69.80;;;;;;2231119;56;20973;-72
2023/05/01 00:32:43;;;;;;;4.12;2.97;;;15.30;69.80;;;;;;2453495;55;20929;-71
2023/05/01 00:35:11;;;;;;;5.32;3.53;;;15.30;69.90;;;;;;2453036;55;25596;-71
2023/05/01 00:37:40;;;;;;;5.37;4.03;;;15.30;69.90;;;;;;2231344;56;20973;-72
2023/05/01 00:40:07;;;;;;;5.97;4.05;;;15.30;69.80;;;;;;2450511;55;20969;-72
2023/05/01 00:42:35;;;;;;;5.00;3.50;;;15.40;70.00;;;;;;2231319;56;20961;-72
2023/05/01 00:45:01;;;;;;;4.90;3.50;;;15.40;70.00;;;;;;2452612;55;21004;-72
2023/05/01 00:47:27;;;;;;;4.87;3.33;;;15.40;70.10;;;;;;2453056;55;21797;-71
2023/05/01 00:49:53;;;;;;;5.15;3.42;;;15.40;70.10;;;;;;2453110;55;20977;-71
2023/05/01 00:52:20;;;;;;;5.18;3.42;;;15.40;70.10;;;;;;2235245;56;21024;-71
2023/05/01 00:54:50;;;;;;;4.72;3.10;;;15.40;70.10;;;;;;2232957;56;21905;-71
2023/05/01 00:57:19;;;;;;;4.07;2.78;;;15.40;70.10;;;;;;2231041;56;20957;-71
2023/05/01 00:59:45;;;;;;;5.30;2.92;;;15.40;70.00;;;;;;2453269;55;21454;-71
2023/05/01 01:02:12;;;;;;;5.15;3.17;;;15.40;70.10;;;;;;2452577;55;21771;-71
2023/05/01 01:04:43;;;;;;;5.12;3.42;;;15.40;70.10;;;;;;2452620;55;21006;-71
2023/05/01 01:07:20;;;;;;;4.50;3.20;;;15.40;70.00;;;;;;2452745;55;21001;-71
2023/05/01 01:11:57;;;;;;;6.78;4.10;;;15.50;70.10;;;;;;2230919;56;21758;-70
2023/05/01 01:14:27;;;;;;;4.90;3.17;;;15.50;68.70;;;;;;2456630;55;21382;-72
2023/05/01 01:16:58;;;;;;;5.50;3.45;;;15.50;70.00;;;;;;2231548;56;20952;-71
2023/05/01 01:20:18;;;;;;;5.28;3.53;;;15.50;70.10;;;;;;2452711;55;20969;-70
2023/05/01 01:29:49;;;;;;;6.40;3.20;;;15.50;69.10;;;;;;2452737;55;20956;-73
2023/05/01 01:35:54;;;;;;;3.50;2.12;;;15.50;69.00;;;;;;2452795;55;20953;-71
2023/05/01 01:38:33;;;;;;;3.78;2.55;;;15.50;68.90;;;;;;2230629;56;21120;-70
2023/05/01 01:41:06;;;;;;;3.58;2.25;;;15.50;70.00;;;;;;2453844;55;20961;-71
2023/05/01 01:43:38;;;;;;;3.95;2.80;;;15.50;70.20;;;;;;2452647;55;21391;-71
2023/05/01 01:46:05;;;;;;;5.22;3.35;;;15.40;70.20;;;;;;2230731;56;21438;-71
2023/05/01 01:48:36;;;;;;;4.90;3.10;;;15.40;70.40;;;;;;2230747;56;21013;-72
2023/05/01 01:51:09;;;;;;;4.47;3.30;;;15.40;70.40;;;;;;2453266;55;21422;-72
2023/05/01 01:53:36;;;;;;;3.97;2.50;;;15.40;70.30;;;;;;2453528;55;20945;-70
2023/05/01 01:56:05;;;;;;;4.60;3.33;;;15.40;70.50;;;;;;2453352;55;20941;-71
2023/05/01 01:58:31;;;;;;;4.97;3.60;;;15.40;70.60;;;;;;2231270;56;21033;-71
2023/05/01 02:00:58;;;;;;;5.10;3.78;;;15.40;70.60;;;;;;2231145;56;21586;-71
2023/05/01 02:03:25;;;;;;;5.28;4.00;;;15.40;70.60;;;;;;2230539;56;21033;-72
2023/05/01 02:05:53;;;;;;;5.22;3.47;;;15.40;70.50;;;;;;2240796;56;21008;-71
2023/05/01 02:08:20;;;;;;;4.75;3.28;;;15.40;70.70;;;;;;2455486;55;20941;-71
2023/05/01 02:10:46;;;;;;;4.55;3.12;;;15.40;70.70;;;;;;2230681;56;21044;-71
2023/05/01 02:13:13;;;;;;;6.32;3.65;;;15.40;70.70;;;;;;2230713;56;20981;-72
2023/05/01 02:15:39;;;;;;;4.93;3.17;;;15.40;71.00;;;;;;2454005;55;20966;-70
2023/05/01 02:18:05;;;;;;;4.87;3.08;;;15.40;70.60;;;;;;2453190;55;20997;-71
2023/05/01 02:20:32;;;;;;;6.10;3.22;;;15.40;70.60;;;;;;2452813;55;21053;-71
2023/05/01 02:22:59;;;;;;;4.80;3.28;;;15.40;70.50;;;;;;2231007;56;20945;-73
2023/05/01 02:25:26;;;;;;;4.55;3.55;;;15.40;70.60;;;;;;2458103;55;21032;-73
2023/05/01 02:28:00;;;;;;;4.75;3.10;;;15.40;70.60;;;;;;2233038;56;20961;-72
2023/05/01 02:30:28;;;;;;;4.55;3.33;;;15.40;70.40;;;;;;2455490;55;21032;-71
2023/05/01 02:32:56;;;;;;;5.12;3.42;;;15.40;70.70;;;;;;2233395;56;21604;-72
2023/05/01 02:35:24;;;;;;;3.90;2.67;;;15.50;70.70;;;;;;2231263;56;21077;-71
2023/05/01 02:37:50;;;;;;;5.75;3.12;;;15.40;70.70;;;;;;2455233;55;21001;-70
2023/05/01 02:40:17;;;;;;;4.85;3.45;;;15.50;70.80;;;;;;2454049;55;21005;-71
2023/05/01 02:42:44;;;;;;;4.97;3.40;;;15.40;70.60;;;;;;2452422;55;21077;-70
2023/05/01 02:45:18;;;;;;;5.00;3.30;;;15.40;70.60;;;;;;2229927;56;21021;-71
2023/05/01 02:47:45;;;;;;;5.00;3.62;;;15.50;70.50;;;;;;2230234;56;20985;-71
2023/05/01 02:50:13;;;;;;;4.75;3.33;;;15.50;70.70;;;;;;2230574;56;20949;-71
2023/05/01 02:52:40;;;;;;;4.85;2.90;;;15.40;70.60;;;;;;2453629;55;20972;-71
2023/05/01 02:55:07;;;;;;;4.87;3.58;;;15.50;70.70;;;;;;2230975;56;21049;-71
2023/05/01 02:57:34;;;;;;;4.70;3.47;;;15.40;70.50;;;;;;2452950;55;21013;-70
2023/05/01 03:00:08;;;;;;;4.90;3.17;;;15.50;70.60;;;;;;2453327;55;20964;-72
2023/05/01 03:02:34;;;;;;;4.70;3.20;;;15.40;70.30;;;;;;2452124;55;21012;-73
2023/05/01 03:05:02;;;;;;;4.47;3.00;;;15.40;70.40;;;;;;2453223;55;21033;-70
2023/05/01 03:07:33;;;;;;;4.30;2.78;;;15.40;70.40;;;;;;2453417;55;20961;-72
2023/05/01 03:10:03;;;;;;;8.27;4.00;;;15.40;70.40;;;;;;2231360;56;21845;-71
2023/05/01 03:12:30;;;;;;;4.95;3.28;;;15.40;70.30;;;;;;2230639;56;21990;-72
2023/05/01 03:14:56;;;;;;;5.55;3.90;;;15.40;70.50;;;;;;2455879;55;21065;-72
2023/05/01 03:17:23;;;;;;;5.80;3.30;;;15.40;71.30;;;;;;2232694;56;21009;-72
2023/05/01 03:19:51;;;;;;;4.15;2.95;;;15.40;70.60;;;;;;2453331;55;21142;-71
2023/05/01 03:22:17;;;;;;;5.45;3.05;;;15.40;70.60;;;;;;2452723;55;20989;-71
2023/05/01 03:24:46;;;;;;;5.95;3.75;;;15.40;70.70;;;;;;2453300;55;21879;-72
2023/05/01 03:27:12;;;;;;;6.55;3.65;;;15.40;70.70;;;;;;2451957;55;21373;-71
2023/05/01 03:29:39;;;;;;;5.12;3.83;;;15.40;70.70;;;;;;2453139;55;21001;-73
2023/05/01 03:32:06;;;;;;;5.30;3.75;;;15.40;70.70;;;;;;2452670;55;21588;-72
2023/05/01 03:34:33;;;;;;;5.80;3.95;;;15.40;70.70;;;;;;2230493;56;20953;-71
2023/05/01 03:36:59;;;;;;;5.05;3.53;;;15.40;70.70;;;;;;2231909;56;21021;-72
2023/05/01 03:39:26;;;;;;;4.35;3.15;;;15.40;70.70;;;;;;2452558;55;20949;-72
2023/05/01 03:41:52;;;;;;;5.87;3.28;;;15.40;70.70;;;;;;2231204;56;21032;-71
2023/05/01 03:44:19;;;;;;;5.05;2.85;;;15.40;70.70;;;;;;2230503;56;20941;-72
2023/05/01 03:46:47;;;;;;;7.05;3.22;;;15.40;70.80;;;;;;2453983;55;21036;-70
2023/05/01 03:49:13;;;;;;;6.43;3.33;;;15.40;70.80;;;;;;2235975;56;21011;-70
2023/05/01 03:51:39;;;;;;;4.53;3.17;;;15.40;70.80;;;;;;2456104;55;20989;-72
2023/05/01 03:54:06;;;;;;;4.65;3.47;;;15.40;70.80;;;;;;2230931;56;20984;-70
2023/05/01 03:56:34;;;;;;;5.40;3.00;;;15.40;70.90;;;;;;2231226;56;20977;-70
2023/05/01 03:59:00;;;;;;;4.60;2.95;;;15.40;70.90;;;;;;2231933;56;20941;-71
2023/05/01 04:01:27;;;;;;;4.20;2.87;;;15.40;71.00;;;;;;2235422;56;20924;-71
2023/05/01 04:03:53;;;;;;;3.72;2.47;;;15.40;70.90;;;;;;2456535;55;20988;-71
2023/05/01 04:06:19;;;;;;;3.95;2.58;;;15.40;71.00;;;;;;2237713;56;20989;-71
2023/05/01 04:08:46;;;;;;;3.75;2.53;;;15.40;70.90;;;;;;2231593;56;20985;-71
2023/05/01 04:11:13;;;;;;;3.80;2.53;;;15.40;71.00;;;;;;2452942;55;21040;-72
2023/05/01 04:13:41;;;;;;;3.30;2.28;;;15.40;71.00;;;;;;2231292;56;21056;-70
2023/05/01 04:16:08;;;;;;;4.97;2.95;;;15.40;71.00;;;;;;2231218;56;21793;-71
2023/05/01 04:18:35;;;;;;;3.90;2.47;;;15.50;71.10;;;;;;2453558;55;20926;-71
2023/05/01 04:21:01;;;;;;;4.00;2.72;;;15.50;71.10;;;;;;2236408;56;21829;-70
2023/05/01 04:23:27;;;;;;;4.75;2.40;;;15.50;71.10;;;;;;2232480;56;21069;-71
2023/05/01 04:25:54;;;;;;;4.82;3.00;;;15.50;71.10;;;;;;2453440;55;21595;-69
2023/05/01 04:28:20;;;;;;;5.30;3.67;;;15.50;71.10;;;;;;2452942;55;21449;-70
2023/05/01 04:30:46;;;;;;;4.43;3.10;;;15.50;71.10;;;;;;2453661;55;20957;-70
2023/05/01 04:33:12;;;;;;;4.55;2.87;;;15.50;71.10;;;;;;2455291;55;21515;-69
2023/05/01 04:35:40;;;;;;;4.32;2.87;;;15.50;71.10;;;;;;2455318;55;20949;-70
2023/05/01 04:38:06;;;;;;;4.40;2.80;;;15.50;71.10;;;;;;2453349;55;21024;-71
2023/05/01 04:40:35;;;;;;;4.28;2.83;;;15.50;71.10;;;;;;2453114;55;21024;-69
2023/05/01 04:43:02;;;;;;;4.32;2.97;;;15.60;71.20;;;;;;2453602;55;21027;-70
2023/05/01 04:45:28;;;;;;;4.03;2.62;;;15.60;71.20;;;;;;2453710;55;20996;-70
2023/05/01 04:47:55;;;;;;;5.62;2.87;;;15.60;71.20;;;;;;2453434;55;21072;-70
2023/05/01 04:50:21;;;;;;;3.95;2.70;;;15.60;71.20;;;;;;2452872;55;20969;-71
2023/05/01 04:52:48;;;;;;;3.70;2.20;;;15.60;71.20;;;;;;2453212;55;21045;-70
2023/05/01 04:55:15;;;;;;;4.20;2.62;;;15.60;71.20;;;;;;2452488;55;20961;-71
2023/05/01 04:57:41;;;;;;;4.15;2.62;;;15.60;71.20;;;;;;2236657;56;20960;-71
2023/05/01 05:00:08;;;;;;;5.47;3.35;;;15.70;71.30;;;;;;2454890;55;21049;-69
2023/05/01 05:02:35;;;;;;;4.70;2.62;;;15.60;71.10;;;;;;2454301;55;21008;-70
2023/05/01 05:05:01;;;;;;;4.45;2.70;;;15.70;71.30;;;;;;2231871;56;21085;-69
2023/05/01 05:07:29;;;;;;;4.18;2.67;;;15.60;71.20;;;;;;2230798;56;21500;-71
2023/05/01 05:09:55;;;;;;;4.32;2.92;;;15.60;71.30;;;;;;2231310;56;20965;-70
2023/05/01 05:12:21;;;;;;;3.85;2.70;;;15.60;71.20;;;;;;2453202;55;21041;-70
2023/05/01 05:14:47;;;;;;;4.57;3.20;;;15.70;71.40;;;;;;2453909;55;21053;-70
2023/05/01 05:17:14;;;;;;;4.93;3.37;;;15.70;71.40;;;;;;2231030;56;21776;-69
2023/05/01 05:19:42;;;;;;;4.35;3.00;;;15.70;71.40;;;;;;2231406;56;21025;-69
2023/05/01 05:22:11;;;;;;;4.87;3.47;;;15.70;71.30;;;;;;2453315;55;21031;-71
2023/05/01 05:24:37;;;;;;;4.93;3.67;;;15.70;71.30;;;;;;2231039;56;21017;-71
2023/05/01 05:27:07;;;;;;;4.95;3.95;;;15.80;71.40;;;;;;2231408;56;20961;-70
2023/05/01 05:29:34;;;;;;;6.05;4.62;;;15.70;71.40;;;;;;2453659;55;20949;-71
2023/05/01 05:32:00;;;;;;;6.57;4.75;;;15.70;71.40;;;;;;2454958;55;21084;-70
2023/05/01 05:34:27;;;;;;;4.93;4.03;;;15.70;71.40;;;;;;2453515;55;21037;-70
2023/05/01 05:36:56;;;;;;;5.85;4.22;;;15.80;71.50;;;;;;2453879;55;21004;-70
2023/05/01 05:39:22;;;;;;;5.07;3.58;;;15.70;71.50;;;;;;2231236;56;21029;-69
2023/05/01 05:41:48;;;;;;;5.32;3.87;;;15.80;71.60;;;;;;2454266;55;20973;-70
2023/05/01 05:44:22;;;;;;;5.50;4.40;;;15.80;71.60;;;;;;2231217;56;21048;-70
2023/05/01 05:46:48;;;;;;;5.10;3.75;;;15.80;71.60;;;;;;2453985;55;21481;-69
2023/05/01 05:49:14;;;;;;;6.70;3.90;;;15.90;71.70;;;;;;2231359;56;20957;-71
2023/05/01 05:51:41;;;;;;;5.87;3.80;;;15.90;71.60;;;;;;2454437;55;21349;-72
2023/05/01 05:54:08;;;;;;;5.25;3.83;;;15.90;71.70;;;;;;2458256;55;20957;-70
2023/05/01 05:56:34;;;;;;;4.90;3.67;;;15.90;71.70;;;;;;2238605;56;21036;-70
2023/05/01 05:59:05;;;;;;;6.70;4.30;;;15.90;71.80;;;;;;2236672;56;20985;-70
2023/05/01 06:01:31;;;;;;;6.78;4.62;;;15.90;71.80;;;;;;2234758;56;21537;-72
2023/05/01 06:03:57;;;;;;;5.22;3.83;;;16.00;71.90;;;;;;2233843;56;21057;-69
2023/05/01 06:06:27;;;;;;;5.97;4.53;;;16.00;72.00;;;;;;2455891;55;22539;-70
2023/05/01 06:08:53;;;;;;;5.75;4.10;;;16.00;71.90;;;;;;2456593;55;21012;-72
2023/05/01 06:11:20;;;;;;;7.40;5.00;;;16.00;71.90;;;;;;2455849;55;20969;-70
2023/05/01 06:13:46;;;;;;;6.28;4.50;;;16.10;72.00;;;;;;2233785;56;21020;-70
2023/05/01 06:16:16;;;;;;;6.95;4.18;;;16.10;72.00;;;;;;2232767;56;21005;-70
2023/05/01 06:18:43;;;;;;;4.78;3.70;;;16.10;71.80;;;;;;2455749;55;21564;-71
2023/05/01 06:21:10;;;;;;;6.22;4.35;;;16.10;72.00;;;;;;2237715;56;21324;-71
2023/05/01 06:23:37;;;;;;;6.45;4.55;;;16.20;72.10;;;;;;2235003;56;21494;-69
2023/05/01 06:26:03;;;;;;;6.57;4.60;;;16.20;72.10;;;;;;2458026;55;21061;-73
2023/05/01 06:28:29;;;;;;;5.87;4.43;;;16.20;72.10;;;;;;2231350;56;21029;-72
2023/05/01 06:30:56;;;;;;;6.80;4.75;;;16.30;72.10;;;;;;2454293;55;22099;-72
2023/05/01 06:33:22;;;;;;;5.78;4.55;;;16.30;72.10;;;;;;2230978;56;20977;-70
2023/05/01 06:35:48;;;;;;;7.15;5.15;;;16.30;72.00;;;;;;2453477;55;21013;-71
2023/05/01 06:38:15;;;;;;;4.95;3.90;;;16.40;72.00;;;;;;2457764;55;21020;-71
2023/05/01 06:40:41;;;;;;;7.82;4.18;;;16.40;72.00;;;;;;2231731;56;21875;-69
2023/05/01 06:43:08;;;;;;;6.10;3.97;;;16.40;72.00;;;;;;2231629;56;21053;-76
2023/05/01 06:45:38;;;;;;;6.03;4.40;;;16.40;72.10;;;;;;2455621;55;21060;-72
2023/05/01 06:48:06;;;;;;;4.97;3.35;;;16.40;72.10;;;;;;2234687;56;20976;-71
2023/05/01 06:50:32;;;;;;;6.87;3.90;;;16.50;72.20;;;;;;2231642;56;21300;-73
2023/05/01 06:52:59;;;;;;;4.97;3.42;;;16.50;72.10;;;;;;2232540;56;21029;-72
2023/05/01 06:55:26;;;;;;;5.50;3.85;;;16.50;72.10;;;;;;2232193;56;20980;-76
2023/05/01 06:57:52;;;;;;;5.65;4.30;;;16.50;72.20;;;;;;2232585;56;21790;-75
2023/05/01 07:00:19;;;;;;;6.10;4.40;;;16.60;72.30;;;;;;2239083;56;21732;-77
2023/05/01 07:02:45;;;;;;;6.07;4.12;;;16.60;72.30;;;;;;2456079;55;20988;-73
2023/05/01 07:05:12;;;;;;;6.18;3.75;;;16.60;72.40;;;;;;2454886;55;21047;-73
2023/05/01 07:07:38;;;;;;;5.10;3.47;;;16.60;72.50;;;;;;2455471;55;20961;-72
2023/05/01 07:10:08;;;;;;;5.68;3.78;;;16.60;72.60;;;;;;2455131;55;21091;-73
2023/05/01 07:12:34;;;;;;;6.28;4.28;;;16.60;72.60;;;;;;2454656;55;21462;-75
2023/05/01 07:15:02;;;;;;;6.05;3.95;;;16.70;72.90;;;;;;2457496;55;20929;-73
2023/05/01 07:17:31;;;;;;;5.30;3.78;;;16.70;72.90;;;;;;2454748;55;21440;-73
2023/05/01 07:19:59;;;;;;;5.25;3.90;;;16.70;73.00;;;;;;2457852;55;20934;-73
2023/05/01 07:22:25;;;;;;;4.75;3.55;;;16.80;73.20;;;;;;2456227;55;21491;-75
2023/05/01 07:24:52;;;;;;;5.53;3.80;;;16.80;73.30;;;;;;2454896;55;21942;-72
2023/05/01 07:27:19;;;;;;;5.78;3.80;;;16.80;73.40;;;;;;2454268;55;22582;-74
2023/05/01 07:29:45;;;;;;;4.70;3.25;;;16.90;73.60;;;;;;2455036;55;20989;-74
2023/05/01 07:32:12;;;;;;;4.25;3.25;;;16.90;73.80;;;;;;2454427;55;21064;-75
2023/05/01 07:34:38;;;;;;;4.62;3.15;;;17.00;74.00;;;;;;2455296;55;20969;-72
2023/05/01 07:37:05;;;;;;;5.45;3.40;;;17.10;74.20;;;;;;2232770;56;20993;-74
2023/05/01 07:39:31;;;;;;;5.10;3.70;;;17.10;74.40;;;;;;2454784;55;21156;-74
2023/05/01 07:41:58;;;;;;;4.78;3.28;;;17.20;74.50;;;;;;2454911;55;20949;-73
2023/05/01 07:44:26;;;;;;;5.32;3.92;;;17.30;74.60;;;;;;2458013;55;20957;-72
2023/05/01 07:46:52;;;;;;;5.80;3.95;;;17.40;74.60;;;;;;2456208;55;21281;-73
2023/05/01 07:49:19;;;;;;;7.10;4.12;;;17.40;74.60;;;;;;2454412;55;20977;-72
2023/05/01 07:51:48;;;;;;;5.65;3.72;;;17.50;74.60;;;;;;2454674;55;21021;-73
2023/05/01 07:54:15;;;;;;;4.82;3.62;;;17.70;74.50;;;;;;2454348;55;20968;-73
2023/05/01 07:56:41;;;;;;;5.72;4.45;;;17.70;74.60;;;;;;2455633;55;20980;-72
2023/05/01 07:59:08;;;;;;;5.60;3.90;;;17.70;74.30;;;;;;2458786;55;21005;-72
2023/05/01 08:01:35;;;;;;;6.35;4.20;;;17.80;74.20;;;;;;2454755;55;21088;-72
2023/05/01 08:04:01;;;;;;;5.80;4.12;;;17.90;74.10;;;;;;2232205;56;21021;-73
2023/05/01 08:06:30;;;;;;;5.32;4.05;;;17.90;73.90;;;;;;2231931;56;20981;-72
2023/05/01 08:08:57;;;;;;;6.65;4.25;;;18.00;73.70;;;;;;2233622;56;20964;-72
2023/05/01 08:11:23;;;;;;;6.15;4.60;;;18.00;73.60;;;;;;2458002;55;20989;-72
2023/05/01 08:13:50;;;;;;;7.32;5.78;;;18.10;73.50;;;;;;2459842;55;20937;-72
2023/05/01 08:16:18;;;;;;;7.57;4.72;;;18.10;73.30;;;;;;2231725;56;21514;-74
2023/05/01 08:18:45;;;;;;;7.68;4.75;;;18.20;73.40;;;;;;2454957;55;22632;-72
2023/05/01 08:21:11;;;;;;;6.25;4.70;;;18.20;73.20;;;;;;2454905;55;20985;-72
2023/05/01 08:23:38;;;;;;;6.65;4.68;;;18.20;73.10;;;;;;2457287;55;21017;-73
2023/05/01 08:26:04;;;;;;;5.62;4.40;;;18.30;73.10;;;;;;2455831;55;21756;-74
2023/05/01 08:28:33;;;;;;;5.82;4.22;;;18.30;73.10;;;;;;2454283;55;20961;-72
2023/05/01 08:31:02;;;;;;;6.65;4.47;;;18.40;73.10;;;;;;2454446;55;21031;-72
2023/05/01 08:33:30;;;;;;;5.47;4.00;;;18.40;73.20;;;;;;2454055;55;21009;-73
2023/05/01 08:35:56;;;;;;;5.25;3.90;;;18.50;73.30;;;;;;2455150;55;20968;-72
2023/05/01 08:38:22;;;;;;;4.87;3.70;;;18.50;73.40;;;;;;2454130;55;20977;-74
2023/05/01 08:40:52;;;;;;;5.12;3.80;;;18.60;73.70;;;;;;2454777;55;20985;-72
2023/05/01 08:43:19;;;;;;;6.15;3.90;;;18.60;73.50;;;;;;2453812;55;20960;-72
2023/05/01 08:45:47;;;;;;;5.78;4.30;;;18.70;73.80;;;;;;2454218;55;21017;-74
2023/05/01 08:48:14;;;;;;;5.50;4.30;;;18.70;73.80;;;;;;2231622;56;20953;-73
2023/05/01 08:50:44;;;;;;;6.35;4.57;;;18.80;74.10;;;;;;2231800;56;21819;-73
2023/05/01 08:53:11;;;;;;;5.20;3.90;;;18.90;74.30;;;;;;2454135;55;20945;-74
2023/05/01 08:55:37;;;;;;;5.60;4.18;;;18.90;74.60;;;;;;2453695;55;21025;-75
2023/05/01 08:58:05;;;;;;;5.50;3.75;;;19.00;74.80;;;;;;2454351;55;21068;-72
2023/05/01 09:00:33;;;;;;;4.85;3.65;;;19.10;74.80;;;;;;2232011;56;21028;-74
2023/05/01 09:03:00;;;;;;;5.70;4.03;;;19.20;74.80;;;;;;2454861;55;21021;-73
2023/05/01 09:05:27;;;;;;;5.40;4.03;;;19.30;74.90;;;;;;2233002;56;21049;-73
2023/05/01 09:07:54;;;;;;;5.00;3.50;;;19.40;74.90;;;;;;2454495;55;20957;-72
2023/05/01 09:10:20;;;;;;;4.30;3.10;;;19.40;74.80;;;;;;2231867;56;22202;-72
2023/05/01 09:12:50;;;;;;;4.10;2.62;;;19.60;74.90;;;;;;2231446;56;20973;-74
2023/05/01 09:15:17;;;;;;;4.70;2.90;;;19.60;74.80;;;;;;2231607;56;20968;-72
2023/05/01 09:17:44;;;;;;;4.28;3.15;;;19.70;75.60;;;;;;2454360;55;20960;-72
2023/05/01 09:20:11;;;;;;;3.90;2.80;;;19.80;75.10;;;;;;2231541;56;20961;-72
2023/05/01 09:22:37;;;;;;;4.10;2.90;;;19.90;75.20;;;;;;2453468;55;20952;-73
2023/05/01 09:25:04;;;;;;;3.45;1.95;;;20.00;75.60;;;;;;2238652;56;21596;-72
2023/05/01 09:27:34;;;;;;;3.33;2.00;;;20.10;75.90;;;;;;2455843;55;20961;-73
2023/05/01 09:30:00;;;;;;;3.15;2.10;;;20.20;75.60;;;;;;2454911;55;20965;-72
2023/05/01 09:32:27;;;;;;;3.62;2.37;;;20.40;76.20;;;;;;2454083;55;20989;-73
2023/05/01 09:34:54;;;;;;;5.25;2.70;;;20.50;76.20;;;;;;2232219;56;21074;-73
2023/05/01 09:37:30;;;;;;;3.67;2.37;;;20.60;76.00;;;;;;2453575;55;21005;-73
2023/05/01 09:40:11;;;;;;;3.42;2.35;;;20.70;74.90;;;;;;2454638;55;21466;-71
2023/05/01 09:42:48;;;;;;;3.60;2.37;;;20.90;75.50;;;;;;2231595;56;21017;-72
2023/05/01 09:45:18;;;;;;;3.70;2.50;;;21.00;74.30;;;;;;2454314;55;20961;-72
2023/05/01 09:47:44;;;;;;;3.50;2.08;;;21.10;75.10;;;;;;2231763;56;21550;-73
2023/05/01 09:50:33;;;;;;;3.10;2.10;;;21.10;75.10;;;;;;2231600;56;21060;-72
2023/05/01 09:53:00;;;;;;;3.30;2.15;;;21.30;75.10;;;;;;2232028;56;20973;-73
2023/05/01 09:55:27;;;;;;;3.60;1.92;;;21.30;75.00;;;;;;2453829;55;21050;-73
2023/05/01 09:57:53;;;;;;;3.28;2.17;;;21.40;74.90;;;;;;2231610;56;21801;-73
2023/05/01 10:00:20;;;;;;;4.15;2.40;;;21.50;74.90;;;;;;2453777;55;21451;-71
2023/05/01 10:02:47;;;;;;;3.72;2.55;;;21.60;74.70;;;;;;2231034;56;21100;-71
2023/05/01 10:05:13;;;;;;;3.22;2.12;;;21.70;74.80;;;;;;2453845;55;20977;-71
2023/05/01 10:08:02;;;;;;;3.30;2.10;;;21.70;74.90;;;;;;2453011;55;21005;-72
2023/05/01 10:10:28;;;;;;;2.97;2.05;;;21.80;75.00;;;;;;2216223;56;21485;-71
2023/05/01 10:12:59;;;;;;;3.10;2.08;;;21.90;75.40;;;;;;2453969;55;21021;-72
2023/05/01 10:15:35;;;;;;;4.62;2.10;;;22.00;75.30;;;;;;2453881;55;21705;-72
2023/05/01 10:18:04;;;;;;;3.65;2.17;;;22.20;73.90;;;;;;2231768;56;20992;-71
2023/05/01 10:20:32;;;;;;;3.65;2.40;;;22.20;74.50;;;;;;2452549;55;21036;-72
2023/05/01 10:22:58;;;;;;;3.80;2.40;;;22.30;74.70;;;;;;2454027;55;21065;-71
2023/05/01 10:25:25;;;;;;;3.45;2.25;;;22.40;74.70;;;;;;2231031;56;21932;-74
2023/05/01 10:27:51;;;;;;;3.17;2.17;;;22.50;74.80;;;;;;2457955;55;20936;-73
2023/05/01 10:30:18;;;;;;;3.65;2.10;;;22.60;74.70;;;;;;2241048;56;20977;-71
2023/05/01 10:32:44;;;;;;;4.03;2.65;;;22.70;74.00;;;;;;2233883;56;21305;-73
2023/05/01 10:35:13;;;;;;;3.42;2.30;;;22.70;73.70;;;;;;2231091;56;20967;-73
2023/05/01 10:38:16;;;;;;;3.45;2.22;;;22.80;73.60;;;;;;2452479;55;21578;-74
2023/05/01 10:40:46;;;;;;;3.30;2.10;;;22.90;72.90;;;;;;2453973;55;21013;-73
2023/05/01 10:43:27;;;;;;;4.28;2.33;;;23.00;73.60;;;;;;2453925;55;20985;-72
2023/05/01 10:46:30;;;;;;;3.47;2.03;;;22.90;71.60;;;;;;2231563;56;21663;-72
2023/05/01 10:48:57;;;;;;;3.90;2.10;;;23.20;70.70;;;;;;2231498;56;20957;-71
2023/05/01 10:51:24;;;;;;;4.35;2.83;;;23.20;72.80;;;;;;2453788;55;20973;-71
2023/05/01 10:54:23;;;;;;;3.65;2.33;;;23.20;72.50;;;;;;2457320;55;20996;-71
2023/05/01 10:56:50;;;;;;;3.60;2.47;;;23.20;69.50;;;;;;2454735;55;21498;-71
2023/05/01 10:59:17;;;;;;;2.75;1.87;;;23.30;71.80;;;;;;2456266;55;21033;-71
2023/05/01 11:01:50;;;;;;;3.62;1.98;;;23.30;71.70;;;;;;2237516;56;20952;-72
2023/05/01 11:04:47;;;;;;;4.37;1.90;;;23.30;70.70;;;;;;2453344;55;21032;-72
2023/05/01 11:07:16;;;;;;;3.42;2.00;;;23.40;69.00;;;;;;2450503;55;21009;-71
2023/05/01 11:09:48;;;;;;;3.40;1.98;;;23.40;71.30;;;;;;2453368;55;21025;-71
2023/05/01 11:12:16;;;;;;;3.47;1.67;;;23.40;71.00;;;;;;2453912;55;21064;-71
2023/05/01 11:16:40;;;;;;;2.80;1.65;;;23.40;70.70;;;;;;2234991;56;21531;-70
2023/05/01 11:19:51;;;;;;;2.75;1.60;;;23.50;68.90;;;;;;2231031;56;20936;-71
2023/05/01 11:22:18;;;;;;;3.00;1.62;;;23.50;68.70;;;;;;2449850;55;21104;-71
2023/05/01 11:24:44;;;;;;;3.58;2.08;;;23.60;71.50;;;;;;2458997;55;20965;-71
2023/05/01 11:27:12;;;;;;;2.95;1.67;;;23.60;71.20;;;;;;2231172;56;21963;-69
2023/05/01 11:29:38;;;;;;;3.17;2.10;;;23.70;70.60;;;;;;2454003;55;21046;-70
2023/05/01 11:32:06;;;;;;;3.37;2.10;;;23.70;70.30;;;;;;2232776;56;20972;-70
2023/05/01 11:34:38;;;;;;;2.78;1.70;;;23.80;70.00;;;;;;2230852;56;21396;-72
2023/05/01 11:37:04;;;;;;;2.65;1.55;;;23.80;69.80;;;;;;2236217;56;21081;-70
2023/05/01 11:39:30;;;;;;;2.60;1.60;;;23.80;70.20;;;;;;2232563;56;21564;-71
2023/05/01 11:42:09;;;;;;;3.25;2.10;;;23.90;70.50;;;;;;2453775;55;21021;-70
2023/05/01 11:44:36;;;;;;;3.70;1.70;;;23.90;69.10;;;;;;2230607;56;21028;-70
2023/05/01 11:47:02;;;;;;;3.20;1.90;;;24.00;70.40;;;;;;2453780;55;21024;-70
2023/05/01 11:49:28;;;;;;;3.05;2.00;;;24.00;70.10;;;;;;2452999;55;20945;-71
2023/05/01 11:51:58;;;;;;;3.47;2.10;;;24.10;70.10;;;;;;2231002;56;21001;-72
2023/05/01 11:54:25;;;;;;;3.08;1.60;;;24.10;69.70;;;;;;2454444;55;21037;-70
2023/05/01 11:57:00;;;;;;;2.87;1.75;;;24.20;70.40;;;;;;2455816;55;21242;-70
2023/05/01 11:59:28;;;;;;;2.80;1.73;;;24.30;69.40;;;;;;2452798;55;21029;-70
2023/05/01 12:01:54;;;;;;;3.15;2.03;;;24.40;70.30;;;;;;2231305;56;20993;-70
2023/05/01 12:04:25;;;;;;;7.03;4.80;;;24.40;70.20;;;;;;2236629;56;20960;-70
2023/05/01 12:06:52;;;;;;;5.73;3.50;;;24.50;69.60;;;;;;2232594;56;21940;-70
2023/05/01 12:09:19;;;;;;;4.35;2.80;;;24.60;70.00;;;;;;2452900;55;21016;-70
2023/05/01 12:11:47;;;;;;;3.25;2.35;;;24.70;69.40;;;;;;2453612;55;20969;-68
2023/05/01 12:14:16;;;;;;;3.50;1.83;;;24.70;69.30;;;;;;2453295;55;20957;-70
2023/05/01 12:16:44;;;;;;;3.00;1.98;;;24.80;68.90;;;;;;2230957;56;20953;-70
2023/05/01 12:19:14;;;;;;;3.72;1.90;;;24.90;69.40;;;;;;2235002;56;20985;-71
2023/05/01 12:21:40;;;;;;;2.75;1.80;;;25.00;68.90;;;;;;2456308;55;20965;-70
2023/05/01 12:24:17;;;;;;;3.03;1.50;;;25.00;69.10;;;;;;2453084;55;21041;-70
2023/05/01 12:26:43;;;;;;;3.25;1.67;;;25.10;67.40;;;;;;2453367;55;21425;-70
2023/05/01 12:29:10;;;;;;;3.08;1.67;;;25.10;67.10;;;;;;2456939;55;20945;-71
2023/05/01 12:31:44;;;;;;;2.37;1.20;;;25.00;65.10;;;;;;2237039;56;21076;-71
2023/05/01 12:34:11;;;;;;;2.47;0.95;;;24.80;63.90;;;;;;2454625;55;20980;-72
2023/05/01 12:36:38;;;;;;;1.75;0.90;;;24.70;63.60;;;;;;2458164;55;21036;-70
2023/05/01 12:39:11;;;;;;;2.17;1.10;;;24.50;63.90;;;;;;2453685;55;21053;-70
2023/05/01 12:41:42;;;;;;;2.62;0.85;;;24.30;63.90;;;;;;2455167;55;21081;-70
2023/05/01 12:44:25;;;;;;;2.00;0.90;;;24.20;63.50;;;;;;2233170;56;21066;-71
2023/05/01 12:47:03;;;;;;;1.20;0.68;;;24.00;62.90;;;;;;2454034;55;20993;-70
2023/05/01 12:49:34;;;;;;;1.45;0.80;;;23.90;63.10;;;;;;2233529;56;21508;-70
2023/05/01 12:52:02;;;;;;;1.65;0.80;;;23.70;64.30;;;;;;2231334;56;21643;-69
2023/05/01 12:54:30;;;;;;;2.45;0.95;;;23.60;64.30;;;;;;2453271;55;21037;-70
2023/05/01 12:57:18;;;;;;;1.90;0.98;;;23.40;63.80;;;;;;2453323;55;21073;-71
2023/05/01 12:59:45;;;;;;;2.25;0.90;;;23.30;62.10;;;;;;2231854;56;21060;-70
2023/05/01 13:02:13;;;;;;;2.03;0.90;;;23.10;63.00;;;;;;2454450;55;21025;-71
2023/05/01 13:04:40;;;;;;;3.12;1.10;;;22.90;62.80;;;;;;2453625;55;20985;-74
2023/05/01 13:07:11;;;;;;;4.18;1.35;;;22.70;62.60;;;;;;2455402;55;21897;-72
2023/05/01 13:09:38;;;;;;;3.03;1.30;;;22.50;62.40;;;;;;2453420;55;21650;-72